createdAt,value
2019-06-20T00:00:01.183Z,38.0
2019-06-20T00:05:01.104Z,39.5
2019-06-20T00:10:01.239Z,38.2
2019-06-20T00:15:01.110Z,38.6
2019-06-20T00:20:06.256Z,40.0
2019-06-20T00:25:02.906Z,39.6
2019-06-20T00:31:01.202Z,37.7
2019-06-20T00:36:06.113Z,38.4
2019-06-20T00:41:01.156Z,39.8
2019-06-20T00:46:01.143Z,39.0
2019-06-20T00:51:01.210Z,38.9
2019-06-20T00:56:01.153Z,39.7
2019-06-20T01:01:01.189Z,39.6
2019-06-20T01:06:01.131Z,39.3
2019-06-20T01:11:01.110Z,39.9
2019-06-20T01:21:01.175Z,40.7
2019-06-20T01:26:01.123Z,42.0
2019-06-20T01:31:01.231Z,42.7
2019-06-20T01:36:01.102Z,43.2
2019-06-20T01:41:06.541Z,44.7
2019-06-20T01:46:06.107Z,44.3
2019-06-20T01:51:06.180Z,44.1
2019-06-20T01:56:06.121Z,43.7
2019-06-20T02:01:06.187Z,43.2
2019-06-20T02:06:06.107Z,43.5
2019-06-20T02:11:11.180Z,44.4
2019-06-20T02:16:11.118Z,44.7
2019-06-20T02:21:06.181Z,45.1
2019-06-20T02:26:06.115Z,45.4
2019-06-20T02:31:06.151Z,43.9
2019-06-20T02:36:06.142Z,43.0
2019-06-20T02:41:06.253Z,42.2
2019-06-20T02:46:01.103Z,41.6
2019-06-20T02:51:01.229Z,41.4
2019-06-20T02:56:01.105Z,40.3
2019-06-20T03:01:01.171Z,39.0
2019-06-20T03:06:01.076Z,38.1
2019-06-20T03:11:01.174Z,35.4
2019-06-20T03:16:06.120Z,33.0
2019-06-20T03:21:01.235Z,33.3
2019-06-20T03:26:01.073Z,32.5
2019-06-20T03:31:01.171Z,32.6
2019-06-20T03:36:01.108Z,32.5
2019-06-20T03:41:01.170Z,31.5
2019-06-20T03:46:01.103Z,31.2
2019-06-20T03:51:01.166Z,30.6
2019-06-20T03:56:01.099Z,30.0
2019-06-20T04:01:01.237Z,30.2
2019-06-20T04:06:01.109Z,31.2
2019-06-20T04:11:01.176Z,31.1
2019-06-20T04:16:01.122Z,32.4
2019-06-20T04:21:01.174Z,33.0
2019-06-20T04:26:07.136Z,33.8
2019-06-20T04:31:11.182Z,34.6
2019-06-20T04:36:01.108Z,36.6
2019-06-20T04:41:01.240Z,39.5
2019-06-20T04:46:06.127Z,41.3
2019-06-20T04:51:01.176Z,44.0
2019-06-20T04:56:05.332Z,46.1
2019-06-20T05:01:01.172Z,46.5
2019-06-20T05:06:01.105Z,46.7
2019-06-20T05:11:01.238Z,46.9
2019-06-20T05:16:01.111Z,46.4
2019-06-20T05:21:01.184Z,47.2
2019-06-20T05:26:01.101Z,48.5
2019-06-20T05:31:01.184Z,48.3
2019-06-20T05:36:01.107Z,49.3
2019-06-20T05:41:01.243Z,49.9
2019-06-20T05:46:09.197Z,50.2
2019-06-20T05:51:01.235Z,49.5
2019-06-20T05:56:06.123Z,49.7
2019-06-20T06:01:06.187Z,49.2
2019-06-20T06:06:06.132Z,48.8
2019-06-20T06:11:01.177Z,46.2
2019-06-20T06:21:01.392Z,44.6
2019-06-20T06:26:01.116Z,42.8
2019-06-20T06:31:01.188Z,42.5
2019-06-20T06:36:06.122Z,43.5
2019-06-20T06:41:01.183Z,42.7
2019-06-20T06:47:01.114Z,42.2
2019-06-20T06:52:01.107Z,42.4
2019-06-20T06:57:01.114Z,41.7
2019-06-20T07:02:01.242Z,41.9
2019-06-20T07:07:01.115Z,40.6
2019-06-20T07:17:01.113Z,41.5
2019-06-20T07:22:06.183Z,40.6
2019-06-20T07:27:06.120Z,39.8
2019-06-20T07:37:01.178Z,39.4
2019-06-20T07:42:01.175Z,38.0
2019-06-20T07:47:16.534Z,40.7
2019-06-20T07:52:01.265Z,40.5
2019-06-20T07:57:01.115Z,39.8
2019-06-20T08:02:01.114Z,39.7
2019-06-20T08:07:01.103Z,39.6
2019-06-20T08:12:01.236Z,38.3
2019-06-20T08:17:02.177Z,38.8
2019-06-20T08:22:01.171Z,41.1
2019-06-20T08:27:03.057Z,42.2
2019-06-20T08:32:02.664Z,43.9
2019-06-20T08:37:02.350Z,44.2
2019-06-20T08:42:02.105Z,43.6
2019-06-20T08:47:02.231Z,42.6
2019-06-20T08:52:01.284Z,43.2
2019-06-20T08:57:01.092Z,42.0
2019-06-20T09:12:02.318Z,40.0
2019-06-20T09:17:01.110Z,38.6
2019-06-20T09:22:01.243Z,38.7
2019-06-20T09:27:01.165Z,37.4
2019-06-20T09:32:01.171Z,38.0
2019-06-20T09:37:01.110Z,40.3
2019-06-20T09:42:01.174Z,40.0
2019-06-20T09:47:02.418Z,40.3
2019-06-20T09:52:01.106Z,42.3
2019-06-20T10:02:01.317Z,42.8
2019-06-20T10:07:01.103Z,44.7
2019-06-20T10:12:01.173Z,45.0
2019-06-20T10:17:01.111Z,44.7
2019-06-20T10:22:01.201Z,44.5
2019-06-20T10:27:01.102Z,42.6
2019-06-20T10:32:01.232Z,41.3
2019-06-20T10:37:01.102Z,39.7
2019-06-20T10:42:01.236Z,38.7
2019-06-20T10:47:06.112Z,39.1
2019-06-20T10:52:01.202Z,40.4
2019-06-20T10:57:01.124Z,41.4
2019-06-20T11:02:01.168Z,43.1
2019-06-20T11:07:01.064Z,42.2
2019-06-20T11:12:01.230Z,42.3
2019-06-20T11:17:01.114Z,41.1
2019-06-20T11:22:01.174Z,40.0
2019-06-20T11:27:01.111Z,39.5
2019-06-20T11:32:01.169Z,39.4
2019-06-20T11:37:01.103Z,38.6
2019-06-20T11:42:01.172Z,37.2
2019-06-20T11:47:01.107Z,35.8
2019-06-20T11:52:01.195Z,34.0
2019-06-20T11:57:01.168Z,34.5
2019-06-20T12:02:01.204Z,34.2
2019-06-20T12:08:01.103Z,34.6
2019-06-20T12:13:01.168Z,34.8
2019-06-20T12:18:01.106Z,33.3
2019-06-20T12:23:01.239Z,30.2
2019-06-20T12:28:01.111Z,27.2
2019-06-20T12:33:01.178Z,23.2
2019-06-20T12:38:06.111Z,19.4
2019-06-20T12:43:06.107Z,18.1
2019-06-20T12:48:06.110Z,16.0
2019-06-20T12:58:01.118Z,16.2
2019-06-20T13:03:01.106Z,16.5
2019-06-20T13:08:01.121Z,15.7
2019-06-20T13:13:01.229Z,15.2
2019-06-20T13:18:01.101Z,14.2
2019-06-20T13:28:01.258Z,13.7
2019-06-20T13:33:01.114Z,14.0
2019-06-20T13:43:01.231Z,13.5
2019-06-20T13:48:01.107Z,12.5
2019-06-20T13:53:01.163Z,12.4
2019-06-20T13:58:01.107Z,11.5
2019-06-20T14:03:01.183Z,11.1
2019-06-20T14:08:01.112Z,10.9
2019-06-20T14:13:01.245Z,11.6
2019-06-20T14:18:01.118Z,11.4
2019-06-20T14:23:01.187Z,11.3
2019-06-20T14:29:01.173Z,11.2
2019-06-20T14:34:01.109Z,11.1
2019-06-20T14:39:01.242Z,10.6
2019-06-20T14:44:01.109Z,10.2
2019-06-20T14:49:01.183Z,10.5
2019-06-20T14:54:01.094Z,11.0
2019-06-20T14:59:06.097Z,11.2
2019-06-20T15:04:01.103Z,11.9
2019-06-20T15:09:05.721Z,12.4
2019-06-20T15:14:01.109Z,11.9
2019-06-20T15:24:01.247Z,11.7
2019-06-20T15:29:01.186Z,10.5
2019-06-20T15:34:01.171Z,10.3
2019-06-20T15:39:01.167Z,10.7
2019-06-20T15:44:01.106Z,10.3
2019-06-20T15:49:15.311Z,10.0
2019-06-20T15:59:01.175Z,9.4
2019-06-20T16:04:06.123Z,9.1
2019-06-20T16:09:01.181Z,8.8
2019-06-20T16:14:01.100Z,9.0
2019-06-20T16:19:01.167Z,9.4
2019-06-20T16:24:01.106Z,10.0
2019-06-20T16:29:06.228Z,10.1
2019-06-20T16:34:01.109Z,10.5
2019-06-20T16:39:11.248Z,10.3
2019-06-20T16:44:06.116Z,9.8
2019-06-20T16:49:01.166Z,9.3
2019-06-20T16:54:01.104Z,8.7
2019-06-20T16:59:06.116Z,8.3
2019-06-20T17:04:01.112Z,8.5
2019-06-20T17:09:01.235Z,8.9
2019-06-20T17:14:01.076Z,9.0
2019-06-20T17:19:01.174Z,9.2
2019-06-20T17:24:01.125Z,9.3
2019-06-20T17:29:01.488Z,9.2
2019-06-20T17:39:01.106Z,8.9
2019-06-20T17:44:06.119Z,9.4
2019-06-20T17:49:01.187Z,9.5
2019-06-20T17:59:01.188Z,9.3
2019-06-20T18:04:13.159Z,9.8
2019-06-20T18:19:01.175Z,9.4
2019-06-20T18:24:06.126Z,9.8
2019-06-20T18:29:06.241Z,9.9
2019-06-20T18:34:06.120Z,10.0
2019-06-20T18:39:01.141Z,10.3
2019-06-20T18:44:01.122Z,10.6
2019-06-20T18:50:01.102Z,10.3
2019-06-20T18:55:01.103Z,10.4
2019-06-20T19:00:01.273Z,10.4
2019-06-20T19:05:01.125Z,11.0
2019-06-20T19:10:01.173Z,11.5
2019-06-20T19:15:01.107Z,11.4
2019-06-20T19:20:01.183Z,11.7
2019-06-20T19:25:03.882Z,12.1
2019-06-20T19:30:01.232Z,11.9
2019-06-20T19:35:02.630Z,12.2
2019-06-20T19:40:01.174Z,13.6
2019-06-20T19:45:01.109Z,13.7
2019-06-20T19:50:06.180Z,13.9
2019-06-20T19:55:01.097Z,14.1
2019-06-20T20:00:02.119Z,14.6
2019-06-20T20:05:14.782Z,13.7
2019-06-20T20:10:01.099Z,13.9
2019-06-20T20:15:01.086Z,13.0
2019-06-20T20:20:01.121Z,12.6
2019-06-20T20:25:01.116Z,12.1
2019-06-20T20:30:01.183Z,11.8
2019-06-20T20:35:01.134Z,11.2
2019-06-20T20:40:01.106Z,11.9
2019-06-20T20:45:01.111Z,12.1
2019-06-20T20:50:01.112Z,12.2
2019-06-20T20:55:01.104Z,12.4
2019-06-20T21:00:06.194Z,13.4
2019-06-20T21:05:01.082Z,13.7
2019-06-20T21:10:01.112Z,14.0
2019-06-20T21:15:01.099Z,14.4
2019-06-20T21:20:06.248Z,15.8
2019-06-20T21:30:01.176Z,16.1
2019-06-20T21:35:01.112Z,16.4
2019-06-20T21:40:01.174Z,15.7
2019-06-20T21:45:01.101Z,14.3
2019-06-20T21:50:01.113Z,13.6
2019-06-20T21:55:01.099Z,13.5
2019-06-20T22:00:01.179Z,13.8
2019-06-20T22:05:06.119Z,14.9
2019-06-20T22:10:01.180Z,15.2
2019-06-20T22:15:01.117Z,15.0
2019-06-20T22:21:01.262Z,14.5
2019-06-20T22:26:01.130Z,13.5
2019-06-20T22:31:01.231Z,12.6
2019-06-20T22:36:01.107Z,12.4
2019-06-20T22:41:01.182Z,12.8
2019-06-20T22:46:01.112Z,13.2
2019-06-20T22:51:01.181Z,14.2
2019-06-20T22:56:01.103Z,14.3
2019-06-20T23:06:01.201Z,14.7
2019-06-20T23:16:06.183Z,14.3
2019-06-20T23:21:04.794Z,14.9
2019-06-20T23:26:07.158Z,15.2
2019-06-20T23:32:01.182Z,14.8
2019-06-20T23:42:01.107Z,14.9
2019-06-20T23:47:01.077Z,14.5
2019-06-20T23:52:01.242Z,15.0
2019-06-20T23:57:01.112Z,16.3
